SIA895 VHHH-WSSS
Flight info
| Callsign | SIA895 |
|---|---|
| Flight time | 3h 19m |
| Altitude | 40000 |
| Route | PECAN V12 EPDOS L642 EPKAL/K0907F400 L642 ESPOB/N0490F400 Q801 ESBUM/N0486F410 Q802 ELALO ELALO1A |
| Aircraft | A359/H-SDE2E3GHIJ3J4J5LM1ORWXY/LB1D1 |
Departure
| Time | 2026-05-04 11:16 |
|---|---|
| Airport | Hong Kong International Airport (VHHH) |
Arrival
| Time | 2026-05-04 14:35 |
|---|---|
| Airport | Singapore Changi Airport (WSSS) |
| Time | Latitude | Longitude | Altitude | Speed | Heading |
|---|---|---|---|---|---|
| 2026-05-04 10:45 | 22.31875 | 113.93235 | 38 ft | 0 kts | 71° |
| 2026-05-04 11:01 | 22.31866 | 113.93209 | 37 ft | 4 kts | 71° |
| 2026-05-04 11:02 | 22.31857 | 113.93181 | 37 ft | 4 kts | 71° |
| 2026-05-04 11:02 | 22.31851 | 113.93160 | 35 ft | 4 kts | 69° |
| 2026-05-04 11:05 | 22.31772 | 113.93154 | 35 ft | 0 kts | 341° |
| 2026-05-04 11:06 | 22.31817 | 113.93138 | 37 ft | 13 kts | 341° |
| 2026-05-04 11:06 | 22.31864 | 113.93061 | 38 ft | 17 kts | 257° |
| 2026-05-04 11:06 | 22.31820 | 113.92911 | 38 ft | 22 kts | 249° |
| 2026-05-04 11:06 | 22.31764 | 113.92749 | 38 ft | 25 kts | 251° |
| 2026-05-04 11:08 | 22.31086 | 113.92221 | 38 ft | 25 kts | 161° |
| 2026-05-04 11:10 | 22.30702 | 113.92365 | 38 ft | 15 kts | 160° |
| 2026-05-04 11:12 | 22.30275 | 113.91259 | 38 ft | 29 kts | 251° |
| 2026-05-04 11:12 | 22.30207 | 113.91052 | 38 ft | 30 kts | 250° |
| 2026-05-04 11:12 | 22.30139 | 113.90841 | 38 ft | 30 kts | 251° |
| 2026-05-04 11:12 | 22.30073 | 113.90635 | 38 ft | 29 kts | 251° |
| 2026-05-04 11:13 | 22.30004 | 113.90424 | 38 ft | 30 kts | 251° |
| 2026-05-04 11:13 | 22.29938 | 113.90218 | 38 ft | 26 kts | 250° |
| 2026-05-04 11:13 | 22.29902 | 113.90107 | 38 ft | 23 kts | 250° |
| 2026-05-04 11:13 | 22.29849 | 113.89946 | 38 ft | 22 kts | 251° |
| 2026-05-04 11:14 | 22.29831 | 113.89898 | 38 ft | 19 kts | 236° |
| 2026-05-04 11:16 | 22.30372 | 113.92110 | 266 ft | 168 kts | 72° |
| 2026-05-04 11:16 | 22.30742 | 113.93250 | 1139 ft | 155 kts | 72° |
| 2026-05-04 11:16 | 22.31097 | 113.94413 | 1632 ft | 175 kts | 74° |
| 2026-05-04 11:17 | 22.31478 | 113.95751 | 2020 ft | 194 kts | 73° |
| 2026-05-04 11:17 | 22.31908 | 113.97158 | 2560 ft | 207 kts | 73° |
| 2026-05-04 11:19 | 22.31615 | 114.07870 | 5204 ft | 235 kts | 150° |
| 2026-05-04 11:19 | 22.30054 | 114.08593 | 5493 ft | 255 kts | 168° |
| 2026-05-04 11:19 | 22.28246 | 114.08807 | 5835 ft | 275 kts | 182° |
| 2026-05-04 11:19 | 22.26264 | 114.08775 | 6217 ft | 294 kts | 184° |
| 2026-05-04 11:20 | 22.24153 | 114.08722 | 6809 ft | 304 kts | 184° |
| 2026-05-04 11:20 | 22.22047 | 114.08698 | 7540 ft | 309 kts | 183° |
| 2026-05-04 11:20 | 22.19881 | 114.08708 | 8367 ft | 313 kts | 183° |
| 2026-05-04 11:20 | 22.17694 | 114.08719 | 9170 ft | 317 kts | 184° |
| 2026-05-04 11:22 | 22.01723 | 114.08761 | 14423 ft | 340 kts | 185° |
| 2026-05-04 11:22 | 21.99370 | 114.08765 | 15023 ft | 345 kts | 185° |
| 2026-05-04 11:23 | 21.96953 | 114.08770 | 15622 ft | 349 kts | 185° |
| 2026-05-04 11:23 | 21.94508 | 114.08775 | 16221 ft | 354 kts | 185° |
| 2026-05-04 11:24 | 21.79223 | 114.08809 | 19584 ft | 376 kts | 185° |
| 2026-05-04 11:25 | 21.76579 | 114.08814 | 19956 ft | 385 kts | 185° |
| 2026-05-04 11:25 | 21.73858 | 114.08817 | 20208 ft | 397 kts | 184° |
| 2026-05-04 11:25 | 21.71059 | 114.08821 | 20447 ft | 407 kts | 184° |
| 2026-05-04 11:26 | 21.65307 | 114.08780 | 21053 ft | 419 kts | 188° |
| 2026-05-04 11:27 | 21.45146 | 114.03837 | 24024 ft | 435 kts | 196° |
| 2026-05-04 11:28 | 21.42142 | 114.03351 | 24404 ft | 439 kts | 190° |
| 2026-05-04 11:28 | 21.39086 | 114.03054 | 24817 ft | 443 kts | 188° |
| 2026-05-04 11:28 | 21.35999 | 114.02841 | 25249 ft | 445 kts | 187° |
| 2026-05-04 11:28 | 21.32897 | 114.02663 | 25697 ft | 447 kts | 187° |
| 2026-05-04 11:29 | 21.29782 | 114.02490 | 26157 ft | 450 kts | 187° |
| 2026-05-04 11:29 | 21.26676 | 114.02309 | 26602 ft | 451 kts | 187° |
| 2026-05-04 11:29 | 21.23490 | 114.02114 | 27056 ft | 454 kts | 188° |
| 2026-05-04 11:29 | 21.20366 | 114.01913 | 27490 ft | 457 kts | 188° |
| 2026-05-04 11:31 | 20.97700 | 114.00398 | 30330 ft | 475 kts | 187° |
| 2026-05-04 11:33 | 20.74956 | 113.95267 | 32336 ft | 483 kts | 201° |
| 2026-05-04 11:33 | 20.71762 | 113.94161 | 32687 ft | 482 kts | 202° |
| 2026-05-04 11:33 | 20.68583 | 113.93038 | 33074 ft | 481 kts | 202° |
| 2026-05-04 11:34 | 20.65388 | 113.91902 | 33334 ft | 483 kts | 202° |
| 2026-05-04 11:34 | 20.62204 | 113.90771 | 33683 ft | 482 kts | 202° |
| 2026-05-04 11:34 | 20.59024 | 113.89646 | 34074 ft | 481 kts | 202° |
| 2026-05-04 11:34 | 20.55843 | 113.88526 | 34376 ft | 480 kts | 202° |
| 2026-05-04 11:35 | 20.52670 | 113.87412 | 34658 ft | 480 kts | 202° |
| 2026-05-04 11:35 | 20.49496 | 113.86299 | 34943 ft | 480 kts | 202° |
| 2026-05-04 11:35 | 20.46322 | 113.85187 | 35221 ft | 480 kts | 202° |
| 2026-05-04 11:35 | 20.43150 | 113.84077 | 35502 ft | 480 kts | 202° |
| 2026-05-04 11:36 | 20.39981 | 113.82968 | 35781 ft | 479 kts | 202° |
| 2026-05-04 11:36 | 20.36800 | 113.81856 | 36048 ft | 479 kts | 203° |
| 2026-05-04 11:36 | 20.33632 | 113.80748 | 36314 ft | 479 kts | 203° |
| 2026-05-04 11:36 | 20.30464 | 113.79641 | 36569 ft | 479 kts | 203° |
| 2026-05-04 11:37 | 20.27291 | 113.78532 | 36819 ft | 479 kts | 203° |
| 2026-05-04 11:37 | 20.24161 | 113.77439 | 37070 ft | 479 kts | 203° |
| 2026-05-04 11:37 | 20.20997 | 113.76335 | 37326 ft | 479 kts | 203° |
| 2026-05-04 11:37 | 20.17833 | 113.75231 | 37570 ft | 478 kts | 203° |
| 2026-05-04 11:38 | 20.14673 | 113.74129 | 37830 ft | 478 kts | 204° |
| 2026-05-04 11:38 | 20.11511 | 113.73027 | 38082 ft | 477 kts | 204° |
| 2026-05-04 11:38 | 20.08363 | 113.71931 | 38402 ft | 475 kts | 204° |
| 2026-05-04 11:38 | 20.05227 | 113.70839 | 38637 ft | 474 kts | 204° |
| 2026-05-04 11:39 | 20.02087 | 113.69746 | 38832 ft | 474 kts | 204° |
| 2026-05-04 11:39 | 19.98952 | 113.68654 | 38971 ft | 474 kts | 204° |
| 2026-05-04 11:40 | 19.80097 | 113.62101 | 39859 ft | 475 kts | 203° |
| 2026-05-04 11:41 | 19.76952 | 113.61009 | 39972 ft | 475 kts | 203° |
| 2026-05-04 11:41 | 19.70713 | 113.58846 | 39987 ft | 474 kts | 203° |
| 2026-05-04 11:42 | 19.64442 | 113.56674 | 39989 ft | 474 kts | 203° |
| 2026-05-04 11:42 | 19.58140 | 113.54492 | 39988 ft | 474 kts | 203° |
| 2026-05-04 11:43 | 19.51896 | 113.52331 | 39973 ft | 474 kts | 202° |
| 2026-05-04 11:43 | 19.45605 | 113.50156 | 39983 ft | 476 kts | 202° |
| 2026-05-04 11:44 | 19.39303 | 113.47979 | 39982 ft | 476 kts | 202° |
| 2026-05-04 11:44 | 19.32991 | 113.45801 | 39985 ft | 476 kts | 202° |
| 2026-05-04 11:45 | 19.26690 | 113.43629 | 39994 ft | 476 kts | 202° |
| 2026-05-04 11:45 | 19.20421 | 113.41469 | 39979 ft | 476 kts | 202° |
| 2026-05-04 11:46 | 19.14119 | 113.39299 | 39988 ft | 476 kts | 202° |
| 2026-05-04 11:46 | 19.07809 | 113.37128 | 39979 ft | 476 kts | 202° |
| 2026-05-04 11:47 | 19.01505 | 113.34962 | 39977 ft | 477 kts | 202° |
| 2026-05-04 11:47 | 18.95194 | 113.32795 | 39983 ft | 476 kts | 202° |
| 2026-05-04 11:48 | 18.88880 | 113.30627 | 39977 ft | 477 kts | 201° |
| 2026-05-04 11:48 | 18.82619 | 113.28481 | 39981 ft | 477 kts | 201° |
| 2026-05-04 11:49 | 18.76300 | 113.26316 | 39983 ft | 477 kts | 201° |
| 2026-05-04 11:49 | 18.69986 | 113.24155 | 39981 ft | 477 kts | 201° |
| 2026-05-04 11:50 | 18.63678 | 113.21997 | 39970 ft | 477 kts | 201° |
| 2026-05-04 11:50 | 18.57360 | 113.19838 | 39980 ft | 477 kts | 202° |
| 2026-05-04 11:51 | 18.51034 | 113.17677 | 39976 ft | 478 kts | 202° |
| 2026-05-04 11:51 | 18.44737 | 113.15528 | 39973 ft | 478 kts | 202° |
| 2026-05-04 11:52 | 18.38404 | 113.13368 | 39976 ft | 478 kts | 202° |
| 2026-05-04 11:52 | 18.32065 | 113.11208 | 39974 ft | 478 kts | 202° |
| 2026-05-04 11:53 | 18.25732 | 113.09052 | 39974 ft | 478 kts | 202° |
| 2026-05-04 11:53 | 18.19440 | 113.06911 | 39975 ft | 478 kts | 202° |
| 2026-05-04 11:55 | 17.94099 | 112.98305 | 39973 ft | 478 kts | 201° |
| 2026-05-04 11:56 | 17.87801 | 112.96058 | 39973 ft | 475 kts | 207° |
| 2026-05-04 11:56 | 17.82144 | 112.92682 | 39975 ft | 469 kts | 218° |
| 2026-05-04 11:57 | 17.76886 | 112.88640 | 39972 ft | 468 kts | 220° |
| 2026-05-04 11:57 | 17.71725 | 112.84481 | 39963 ft | 468 kts | 220° |
| 2026-05-04 11:58 | 17.66535 | 112.80341 | 39969 ft | 469 kts | 220° |
| 2026-05-04 11:58 | 17.61316 | 112.76232 | 39973 ft | 469 kts | 220° |
| 2026-05-04 11:59 | 17.56090 | 112.72137 | 39972 ft | 469 kts | 220° |
| 2026-05-04 11:59 | 17.50868 | 112.68048 | 39975 ft | 469 kts | 220° |
| 2026-05-04 12:00 | 17.45671 | 112.63979 | 39973 ft | 469 kts | 220° |
| 2026-05-04 12:00 | 17.41324 | 112.60578 | 39974 ft | 468 kts | 220° |
| 2026-05-04 12:01 | 17.36099 | 112.56491 | 39975 ft | 468 kts | 220° |
| 2026-05-04 12:02 | 17.17804 | 112.42207 | 39972 ft | 469 kts | 220° |
| 2026-05-04 12:03 | 17.12569 | 112.38126 | 39962 ft | 469 kts | 219° |
| 2026-05-04 12:03 | 17.07364 | 112.34072 | 39971 ft | 469 kts | 219° |
| 2026-05-04 12:04 | 17.02116 | 112.29987 | 39975 ft | 470 kts | 219° |
| 2026-05-04 12:04 | 16.96858 | 112.25925 | 39967 ft | 470 kts | 219° |
| 2026-05-04 12:05 | 16.91557 | 112.21911 | 39965 ft | 470 kts | 219° |
| 2026-05-04 12:05 | 16.86256 | 112.17908 | 39966 ft | 470 kts | 219° |
| 2026-05-04 12:06 | 16.80963 | 112.13905 | 39963 ft | 470 kts | 219° |
| 2026-05-04 12:06 | 16.75669 | 112.09897 | 39965 ft | 471 kts | 219° |
| 2026-05-04 12:07 | 16.70369 | 112.05886 | 39970 ft | 471 kts | 219° |
| 2026-05-04 12:07 | 16.65097 | 112.01900 | 39967 ft | 471 kts | 219° |
| 2026-05-04 12:08 | 16.59794 | 111.97893 | 39965 ft | 471 kts | 219° |
| 2026-05-04 12:08 | 16.54481 | 111.93883 | 39966 ft | 471 kts | 219° |
| 2026-05-04 12:09 | 16.49169 | 111.89875 | 39965 ft | 470 kts | 218° |
| 2026-05-04 12:09 | 16.43906 | 111.85907 | 39965 ft | 470 kts | 218° |
| 2026-05-04 12:10 | 16.38608 | 111.81915 | 39963 ft | 470 kts | 218° |
| 2026-05-04 12:10 | 16.33314 | 111.77930 | 39966 ft | 470 kts | 218° |
| 2026-05-04 12:11 | 16.28013 | 111.73941 | 39962 ft | 470 kts | 218° |
| 2026-05-04 12:11 | 16.22699 | 111.69945 | 39955 ft | 471 kts | 218° |
| 2026-05-04 12:12 | 16.17387 | 111.65953 | 39970 ft | 471 kts | 218° |
| 2026-05-04 12:12 | 16.12065 | 111.61957 | 39973 ft | 472 kts | 218° |
| 2026-05-04 12:14 | 15.90796 | 111.46014 | 39964 ft | 472 kts | 218° |
| 2026-05-04 12:15 | 15.85471 | 111.42029 | 39961 ft | 471 kts | 218° |
| 2026-05-04 12:15 | 15.80147 | 111.38048 | 39962 ft | 471 kts | 218° |
| 2026-05-04 12:16 | 15.74823 | 111.34069 | 39962 ft | 471 kts | 218° |
| 2026-05-04 12:16 | 15.69533 | 111.30118 | 39961 ft | 471 kts | 218° |
| 2026-05-04 12:17 | 15.64203 | 111.26139 | 39964 ft | 471 kts | 218° |
| 2026-05-04 12:17 | 15.58903 | 111.22187 | 39960 ft | 470 kts | 218° |
| 2026-05-04 12:18 | 15.53595 | 111.18231 | 39961 ft | 470 kts | 218° |
| 2026-05-04 12:18 | 15.48286 | 111.14276 | 39959 ft | 469 kts | 218° |
| 2026-05-04 12:19 | 15.42973 | 111.10319 | 39957 ft | 469 kts | 218° |
| 2026-05-04 12:19 | 15.37667 | 111.06373 | 39959 ft | 469 kts | 218° |
| 2026-05-04 12:20 | 15.32363 | 111.02414 | 39957 ft | 469 kts | 219° |
| 2026-05-04 12:20 | 15.27102 | 110.98403 | 39956 ft | 469 kts | 219° |
| 2026-05-04 12:21 | 15.21854 | 110.94392 | 39956 ft | 469 kts | 219° |
| 2026-05-04 12:21 | 15.16624 | 110.90412 | 39959 ft | 469 kts | 219° |
| 2026-05-04 12:22 | 15.11368 | 110.86424 | 39953 ft | 469 kts | 219° |
| 2026-05-04 12:22 | 15.06096 | 110.82428 | 39956 ft | 469 kts | 219° |
| 2026-05-04 12:23 | 15.00834 | 110.78440 | 39959 ft | 469 kts | 219° |
| 2026-05-04 12:23 | 14.95559 | 110.74445 | 39959 ft | 470 kts | 218° |
| 2026-05-04 12:24 | 14.90313 | 110.70476 | 39959 ft | 470 kts | 218° |
| 2026-05-04 12:24 | 14.85029 | 110.66479 | 39959 ft | 470 kts | 218° |
| 2026-05-04 12:25 | 14.79743 | 110.62484 | 39959 ft | 470 kts | 218° |
| 2026-05-04 12:25 | 14.74457 | 110.58491 | 39954 ft | 470 kts | 218° |
| 2026-05-04 12:26 | 14.69175 | 110.54504 | 39953 ft | 470 kts | 218° |
| 2026-05-04 12:26 | 14.63898 | 110.50523 | 39950 ft | 468 kts | 218° |
| 2026-05-04 12:27 | 14.58642 | 110.46560 | 39958 ft | 468 kts | 218° |
| 2026-05-04 12:27 | 14.53381 | 110.42595 | 39956 ft | 468 kts | 218° |
| 2026-05-04 12:28 | 14.48152 | 110.38657 | 39954 ft | 468 kts | 218° |
| 2026-05-04 12:28 | 14.42893 | 110.34699 | 39953 ft | 468 kts | 218° |
| 2026-05-04 12:29 | 14.37632 | 110.30742 | 39951 ft | 468 kts | 218° |
| 2026-05-04 12:29 | 14.32366 | 110.26782 | 39952 ft | 468 kts | 218° |
| 2026-05-04 12:30 | 14.27098 | 110.22825 | 39956 ft | 468 kts | 218° |
| 2026-05-04 12:30 | 14.21831 | 110.18870 | 39954 ft | 468 kts | 218° |
| 2026-05-04 12:31 | 14.16563 | 110.14917 | 39951 ft | 468 kts | 218° |
| 2026-05-04 12:31 | 14.11295 | 110.10967 | 39954 ft | 467 kts | 218° |
| 2026-05-04 12:32 | 14.03444 | 110.05082 | 39951 ft | 467 kts | 218° |
| 2026-05-04 12:33 | 13.98189 | 110.01147 | 39947 ft | 466 kts | 218° |
| 2026-05-04 12:33 | 13.92867 | 109.97334 | 39950 ft | 467 kts | 214° |
| 2026-05-04 12:34 | 13.87320 | 109.93841 | 39951 ft | 467 kts | 213° |
| 2026-05-04 12:34 | 13.81759 | 109.90375 | 39954 ft | 467 kts | 213° |
| 2026-05-04 12:35 | 13.76258 | 109.86878 | 39948 ft | 467 kts | 214° |
| 2026-05-04 12:35 | 13.70739 | 109.83334 | 39945 ft | 470 kts | 214° |
| 2026-05-04 12:36 | 13.65155 | 109.79740 | 39946 ft | 476 kts | 214° |
| 2026-05-04 12:36 | 13.59539 | 109.76132 | 39947 ft | 476 kts | 213° |
| 2026-05-04 12:37 | 13.53918 | 109.72527 | 39947 ft | 476 kts | 213° |
| 2026-05-04 12:37 | 13.48295 | 109.68922 | 39947 ft | 476 kts | 213° |
| 2026-05-04 12:38 | 13.42708 | 109.65342 | 39946 ft | 476 kts | 213° |
| 2026-05-04 12:38 | 13.37067 | 109.61729 | 39944 ft | 477 kts | 213° |
| 2026-05-04 12:39 | 13.31425 | 109.58116 | 39945 ft | 478 kts | 213° |
| 2026-05-04 12:39 | 13.25779 | 109.54505 | 39947 ft | 478 kts | 213° |
| 2026-05-04 12:40 | 13.20164 | 109.50915 | 39948 ft | 478 kts | 213° |
| 2026-05-04 12:40 | 13.14518 | 109.47306 | 39947 ft | 478 kts | 213° |
| 2026-05-04 12:41 | 13.08866 | 109.43697 | 39946 ft | 479 kts | 213° |
| 2026-05-04 12:41 | 13.03183 | 109.40069 | 39950 ft | 481 kts | 213° |
| 2026-05-04 12:42 | 12.97507 | 109.36446 | 39953 ft | 481 kts | 213° |
| 2026-05-04 12:42 | 12.91829 | 109.32825 | 39952 ft | 481 kts | 213° |
| 2026-05-04 12:43 | 12.86181 | 109.29225 | 39952 ft | 481 kts | 213° |
| 2026-05-04 12:43 | 12.80488 | 109.25599 | 39951 ft | 481 kts | 213° |
| 2026-05-04 12:44 | 12.74804 | 109.21981 | 39957 ft | 481 kts | 213° |
| 2026-05-04 12:44 | 12.69088 | 109.18343 | 39958 ft | 483 kts | 213° |
| 2026-05-04 12:45 | 12.63398 | 109.14728 | 39961 ft | 484 kts | 213° |
| 2026-05-04 12:45 | 12.57676 | 109.11098 | 39967 ft | 484 kts | 213° |
| 2026-05-04 12:46 | 12.51951 | 109.07461 | 39967 ft | 484 kts | 213° |
| 2026-05-04 12:46 | 12.46227 | 109.03828 | 39966 ft | 484 kts | 213° |
| 2026-05-04 12:47 | 12.40495 | 109.00194 | 39971 ft | 485 kts | 213° |
| 2026-05-04 12:47 | 12.34746 | 108.96550 | 39984 ft | 486 kts | 213° |
| 2026-05-04 12:48 | 12.29969 | 108.93524 | 39986 ft | 486 kts | 213° |
| 2026-05-04 12:48 | 12.24214 | 108.89882 | 39986 ft | 486 kts | 213° |
| 2026-05-04 12:49 | 12.18449 | 108.86234 | 39985 ft | 486 kts | 213° |
| 2026-05-04 12:49 | 12.12695 | 108.82595 | 39998 ft | 486 kts | 213° |
| 2026-05-04 12:50 | 12.06976 | 108.78982 | 39993 ft | 485 kts | 213° |
| 2026-05-04 12:50 | 12.01232 | 108.75356 | 39994 ft | 484 kts | 213° |
| 2026-05-04 12:51 | 11.95507 | 108.71738 | 39981 ft | 483 kts | 213° |
| 2026-05-04 12:51 | 11.89785 | 108.68125 | 39989 ft | 483 kts | 213° |
| 2026-05-04 12:52 | 11.84069 | 108.64519 | 39975 ft | 483 kts | 213° |
| 2026-05-04 12:52 | 11.78347 | 108.60915 | 39977 ft | 483 kts | 213° |
| 2026-05-04 12:53 | 11.72625 | 108.57308 | 39977 ft | 484 kts | 213° |
| 2026-05-04 12:53 | 11.66888 | 108.53694 | 39962 ft | 485 kts | 213° |
| 2026-05-04 12:54 | 11.61170 | 108.50094 | 39959 ft | 485 kts | 213° |
| 2026-05-04 12:54 | 11.55422 | 108.46479 | 39944 ft | 485 kts | 213° |
| 2026-05-04 12:55 | 11.49673 | 108.42865 | 39950 ft | 485 kts | 213° |
| 2026-05-04 12:55 | 11.43933 | 108.39257 | 39929 ft | 484 kts | 213° |
| 2026-05-04 12:56 | 11.38186 | 108.35647 | 39932 ft | 486 kts | 213° |
| 2026-05-04 12:56 | 11.32424 | 108.32030 | 39933 ft | 486 kts | 213° |
| 2026-05-04 12:57 | 11.26651 | 108.28406 | 39914 ft | 487 kts | 213° |
| 2026-05-04 12:57 | 11.20879 | 108.24786 | 39914 ft | 487 kts | 213° |
| 2026-05-04 12:58 | 11.15114 | 108.21172 | 39903 ft | 487 kts | 213° |
| 2026-05-04 12:58 | 11.09382 | 108.17580 | 39903 ft | 487 kts | 213° |
| 2026-05-04 12:59 | 11.03618 | 108.13969 | 39900 ft | 487 kts | 213° |
| 2026-05-04 12:59 | 10.97845 | 108.10355 | 39900 ft | 487 kts | 213° |
| 2026-05-04 13:00 | 10.92073 | 108.06744 | 39901 ft | 486 kts | 213° |
| 2026-05-04 13:00 | 10.86376 | 108.03023 | 39903 ft | 486 kts | 214° |
| 2026-05-04 13:01 | 10.80738 | 107.99223 | 39902 ft | 486 kts | 215° |
| 2026-05-04 13:01 | 10.75074 | 107.95428 | 39893 ft | 487 kts | 215° |
| 2026-05-04 13:02 | 10.69425 | 107.91669 | 39894 ft | 489 kts | 214° |
| 2026-05-04 13:02 | 10.63726 | 107.87890 | 39895 ft | 489 kts | 216° |
| 2026-05-04 13:03 | 10.58018 | 107.84106 | 39893 ft | 489 kts | 215° |
| 2026-05-04 13:03 | 10.52311 | 107.80324 | 39895 ft | 489 kts | 216° |
| 2026-05-04 13:04 | 10.46646 | 107.76571 | 39891 ft | 489 kts | 216° |
| 2026-05-04 13:04 | 10.40943 | 107.72807 | 39888 ft | 488 kts | 214° |
| 2026-05-04 13:05 | 10.35249 | 107.69054 | 39889 ft | 487 kts | 216° |
| 2026-05-04 13:05 | 10.29561 | 107.65306 | 39889 ft | 487 kts | 215° |
| 2026-05-04 13:06 | 10.23882 | 107.61566 | 39890 ft | 486 kts | 215° |
| 2026-05-04 13:06 | 10.18201 | 107.57825 | 39889 ft | 486 kts | 214° |
| 2026-05-04 13:07 | 10.12551 | 107.54109 | 39887 ft | 486 kts | 214° |
| 2026-05-04 13:07 | 10.06868 | 107.50369 | 39894 ft | 487 kts | 214° |
| 2026-05-04 13:08 | 10.01168 | 107.46599 | 39892 ft | 490 kts | 214° |
| 2026-05-04 13:08 | 9.95446 | 107.42822 | 39895 ft | 490 kts | 214° |
| 2026-05-04 13:09 | 9.89762 | 107.39075 | 39895 ft | 490 kts | 214° |
| 2026-05-04 13:09 | 9.84060 | 107.35321 | 39895 ft | 489 kts | 214° |
| 2026-05-04 13:10 | 9.78344 | 107.31558 | 39893 ft | 488 kts | 215° |
| 2026-05-04 13:10 | 9.72644 | 107.27804 | 39894 ft | 489 kts | 213° |
| 2026-05-04 13:11 | 9.66912 | 107.24034 | 39894 ft | 492 kts | 213° |
| 2026-05-04 13:11 | 9.61172 | 107.20259 | 39893 ft | 492 kts | 213° |
| 2026-05-04 13:12 | 9.55427 | 107.16483 | 39897 ft | 492 kts | 213° |
| 2026-05-04 13:12 | 9.49716 | 107.12731 | 39897 ft | 492 kts | 214° |
| 2026-05-04 13:13 | 9.43971 | 107.08957 | 39893 ft | 492 kts | 214° |
| 2026-05-04 13:13 | 9.38218 | 107.05181 | 39895 ft | 494 kts | 213° |
| 2026-05-04 13:14 | 9.32439 | 107.01388 | 39890 ft | 494 kts | 213° |
| 2026-05-04 13:14 | 9.26672 | 106.97605 | 39893 ft | 493 kts | 213° |
| 2026-05-04 13:15 | 9.20912 | 106.93828 | 39894 ft | 493 kts | 213° |
| 2026-05-04 13:15 | 9.15186 | 106.90075 | 39894 ft | 493 kts | 213° |
| 2026-05-04 13:16 | 9.09426 | 106.86300 | 39895 ft | 493 kts | 213° |
| 2026-05-04 13:16 | 9.03666 | 106.82527 | 39893 ft | 493 kts | 212° |
| 2026-05-04 13:17 | 8.97882 | 106.78741 | 39893 ft | 495 kts | 212° |
| 2026-05-04 13:17 | 8.92098 | 106.74955 | 39895 ft | 496 kts | 212° |
| 2026-05-04 13:18 | 8.86307 | 106.71167 | 39897 ft | 495 kts | 212° |
| 2026-05-04 13:18 | 8.80556 | 106.67406 | 39894 ft | 493 kts | 212° |
| 2026-05-04 13:19 | 8.74814 | 106.63651 | 39893 ft | 490 kts | 212° |
| 2026-05-04 13:19 | 8.69063 | 106.59954 | 39891 ft | 490 kts | 210° |
| 2026-05-04 13:20 | 8.63218 | 106.56351 | 39895 ft | 493 kts | 210° |
| 2026-05-04 13:20 | 8.57356 | 106.52746 | 39894 ft | 493 kts | 210° |
| 2026-05-04 13:21 | 8.51541 | 106.49150 | 39894 ft | 493 kts | 210° |
| 2026-05-04 13:21 | 8.45698 | 106.45524 | 39896 ft | 493 kts | 210° |
| 2026-05-04 13:22 | 8.39856 | 106.41899 | 39893 ft | 493 kts | 210° |
| 2026-05-04 13:22 | 8.33993 | 106.38263 | 39892 ft | 494 kts | 210° |
| 2026-05-04 13:23 | 8.28122 | 106.34624 | 39888 ft | 496 kts | 210° |
| 2026-05-04 13:23 | 8.22247 | 106.30983 | 39892 ft | 494 kts | 210° |
| 2026-05-04 13:24 | 8.16384 | 106.27351 | 39895 ft | 494 kts | 210° |
| 2026-05-04 13:24 | 8.10559 | 106.23743 | 39894 ft | 494 kts | 210° |
| 2026-05-04 13:25 | 8.01764 | 106.18300 | 39895 ft | 494 kts | 210° |
| 2026-05-04 13:25 | 7.95892 | 106.14667 | 39895 ft | 495 kts | 210° |
| 2026-05-04 13:26 | 7.90009 | 106.11029 | 39897 ft | 496 kts | 210° |
| 2026-05-04 13:26 | 7.84117 | 106.07386 | 39896 ft | 496 kts | 210° |
| 2026-05-04 13:27 | 7.78231 | 106.03747 | 39897 ft | 496 kts | 210° |
| 2026-05-04 13:27 | 7.72355 | 106.00117 | 39898 ft | 496 kts | 210° |
| 2026-05-04 13:28 | 7.66502 | 105.96502 | 39898 ft | 496 kts | 210° |
| 2026-05-04 13:28 | 7.60619 | 105.92869 | 39898 ft | 496 kts | 210° |
| 2026-05-04 13:29 | 7.54735 | 105.89238 | 39898 ft | 496 kts | 210° |
| 2026-05-04 13:29 | 7.48846 | 105.85603 | 39901 ft | 496 kts | 210° |
| 2026-05-04 13:30 | 7.42956 | 105.81970 | 39901 ft | 496 kts | 210° |
| 2026-05-04 13:30 | 7.37071 | 105.78341 | 39897 ft | 496 kts | 210° |
| 2026-05-04 13:31 | 7.31174 | 105.74706 | 39897 ft | 496 kts | 210° |
| 2026-05-04 13:31 | 7.25320 | 105.71098 | 39897 ft | 497 kts | 210° |
| 2026-05-04 13:32 | 7.19415 | 105.67460 | 39901 ft | 498 kts | 210° |
| 2026-05-04 13:32 | 7.13510 | 105.63823 | 39902 ft | 498 kts | 210° |
| 2026-05-04 13:33 | 7.07613 | 105.60192 | 39900 ft | 495 kts | 210° |
| 2026-05-04 13:33 | 7.01736 | 105.56575 | 39900 ft | 495 kts | 210° |
| 2026-05-04 13:34 | 6.95772 | 105.53099 | 39904 ft | 494 kts | 205° |
| 2026-05-04 13:34 | 6.90638 | 105.50547 | 39900 ft | 495 kts | 204° |
| 2026-05-04 13:35 | 6.81342 | 105.45992 | 39900 ft | 496 kts | 205° |
| 2026-05-04 13:36 | 6.75178 | 105.42882 | 39899 ft | 496 kts | 205° |
| 2026-05-04 13:36 | 6.69021 | 105.39748 | 39904 ft | 495 kts | 205° |
| 2026-05-04 13:37 | 6.62872 | 105.36617 | 39902 ft | 495 kts | 205° |
| 2026-05-04 13:37 | 6.56756 | 105.33506 | 39900 ft | 495 kts | 205° |
| 2026-05-04 13:38 | 6.50598 | 105.30376 | 39902 ft | 496 kts | 205° |
| 2026-05-04 13:38 | 6.44443 | 105.27250 | 39903 ft | 496 kts | 205° |
| 2026-05-04 13:39 | 6.38277 | 105.24119 | 39902 ft | 497 kts | 205° |
| 2026-05-04 13:39 | 6.32100 | 105.20983 | 39903 ft | 497 kts | 205° |
| 2026-05-04 13:40 | 6.25925 | 105.17848 | 39905 ft | 497 kts | 205° |
| 2026-05-04 13:40 | 6.19752 | 105.14715 | 39906 ft | 497 kts | 205° |
| 2026-05-04 13:41 | 6.13571 | 105.11580 | 39904 ft | 498 kts | 205° |
| 2026-05-04 13:41 | 6.07388 | 105.08443 | 39906 ft | 498 kts | 205° |
| 2026-05-04 13:42 | 5.98106 | 105.03737 | 39906 ft | 498 kts | 205° |
| 2026-05-04 13:42 | 5.91915 | 105.00599 | 39905 ft | 498 kts | 205° |
| 2026-05-04 13:43 | 5.85766 | 104.97483 | 39906 ft | 498 kts | 205° |
| 2026-05-04 13:43 | 5.79579 | 104.94349 | 39905 ft | 497 kts | 205° |
| 2026-05-04 13:44 | 5.73405 | 104.91222 | 39902 ft | 496 kts | 206° |
| 2026-05-04 13:44 | 5.67261 | 104.88111 | 39906 ft | 494 kts | 206° |
| 2026-05-04 13:45 | 5.61123 | 104.85003 | 39905 ft | 493 kts | 206° |
| 2026-05-04 13:45 | 5.54982 | 104.81895 | 39905 ft | 493 kts | 206° |
| 2026-05-04 13:46 | 5.48894 | 104.78814 | 39909 ft | 493 kts | 206° |
| 2026-05-04 13:46 | 5.42759 | 104.75711 | 39908 ft | 493 kts | 206° |
| 2026-05-04 13:47 | 5.36613 | 104.72602 | 39909 ft | 493 kts | 206° |
| 2026-05-04 13:47 | 5.30513 | 104.69518 | 39908 ft | 493 kts | 206° |
| 2026-05-04 13:48 | 5.24343 | 104.66398 | 39905 ft | 493 kts | 206° |
| 2026-05-04 13:48 | 5.18212 | 104.63300 | 39905 ft | 493 kts | 206° |
| 2026-05-04 13:49 | 5.12082 | 104.60202 | 39906 ft | 493 kts | 206° |
| 2026-05-04 13:49 | 5.05991 | 104.57125 | 39905 ft | 494 kts | 206° |
| 2026-05-04 13:50 | 4.99858 | 104.54027 | 39908 ft | 494 kts | 206° |
| 2026-05-04 13:50 | 4.93718 | 104.50927 | 39908 ft | 494 kts | 206° |
| 2026-05-04 13:51 | 4.87284 | 104.48596 | 39908 ft | 491 kts | 190° |
| 2026-05-04 13:51 | 4.80501 | 104.48320 | 39908 ft | 489 kts | 173° |
| 2026-05-04 13:52 | 4.70363 | 104.49582 | 39909 ft | 490 kts | 172° |
| 2026-05-04 13:53 | 4.63585 | 104.50444 | 39908 ft | 490 kts | 172° |
| 2026-05-04 13:53 | 4.56863 | 104.51294 | 39908 ft | 490 kts | 172° |
| 2026-05-04 13:54 | 4.46713 | 104.52575 | 39908 ft | 490 kts | 172° |
| 2026-05-04 13:55 | 4.36548 | 104.53857 | 39914 ft | 490 kts | 172° |
| 2026-05-04 13:55 | 4.26386 | 104.55139 | 39916 ft | 491 kts | 172° |
| 2026-05-04 13:56 | 4.19607 | 104.55992 | 39913 ft | 491 kts | 172° |
| 2026-05-04 13:57 | 4.09444 | 104.56967 | 39914 ft | 491 kts | 174° |
| 2026-05-04 13:58 | 3.95842 | 104.58280 | 39916 ft | 491 kts | 174° |
| 2026-05-04 13:58 | 3.85633 | 104.59278 | 39916 ft | 491 kts | 173° |
| 2026-05-04 13:59 | 3.78836 | 104.59943 | 39916 ft | 491 kts | 173° |
| 2026-05-04 14:00 | 3.68674 | 104.60945 | 39918 ft | 491 kts | 173° |
| 2026-05-04 14:00 | 3.58476 | 104.61942 | 39639 ft | 491 kts | 173° |
| 2026-05-04 14:01 | 3.55068 | 104.62276 | 39412 ft | 491 kts | 173° |
| 2026-05-04 14:01 | 3.51663 | 104.62610 | 39182 ft | 492 kts | 173° |
| 2026-05-04 14:01 | 3.44841 | 104.63279 | 38727 ft | 492 kts | 173° |
| 2026-05-04 14:02 | 3.41431 | 104.63614 | 38490 ft | 493 kts | 173° |
| 2026-05-04 14:02 | 3.38020 | 104.63948 | 38225 ft | 493 kts | 173° |
| 2026-05-04 14:02 | 3.34600 | 104.64284 | 37954 ft | 493 kts | 173° |
| 2026-05-04 14:02 | 3.31182 | 104.64619 | 37716 ft | 494 kts | 173° |
| 2026-05-04 14:03 | 3.27762 | 104.64955 | 37460 ft | 494 kts | 173° |
| 2026-05-04 14:03 | 3.24337 | 104.65291 | 37195 ft | 495 kts | 173° |
| 2026-05-04 14:03 | 3.20904 | 104.65628 | 36945 ft | 495 kts | 173° |
| 2026-05-04 14:03 | 3.17519 | 104.65960 | 36703 ft | 496 kts | 173° |
| 2026-05-04 14:04 | 3.10666 | 104.66618 | 35837 ft | 493 kts | 175° |
| 2026-05-04 14:04 | 3.07237 | 104.66537 | 35049 ft | 496 kts | 187° |
| 2026-05-04 14:04 | 3.03893 | 104.65631 | 34205 ft | 501 kts | 202° |
| 2026-05-04 14:05 | 2.98281 | 104.61492 | 32361 ft | 509 kts | 225° |
| 2026-05-04 14:05 | 2.95853 | 104.58893 | 31440 ft | 511 kts | 226° |
| 2026-05-04 14:05 | 2.93431 | 104.56273 | 30492 ft | 514 kts | 226° |
| 2026-05-04 14:06 | 2.90989 | 104.53643 | 29435 ft | 518 kts | 225° |
| 2026-05-04 14:06 | 2.88532 | 104.51005 | 28624 ft | 515 kts | 225° |
| 2026-05-04 14:06 | 2.86096 | 104.48394 | 27933 ft | 510 kts | 225° |
| 2026-05-04 14:06 | 2.83687 | 104.45815 | 27245 ft | 505 kts | 225° |
| 2026-05-04 14:07 | 2.81294 | 104.43256 | 26558 ft | 501 kts | 225° |
| 2026-05-04 14:07 | 2.78922 | 104.40721 | 25858 ft | 497 kts | 226° |
| 2026-05-04 14:07 | 2.76567 | 104.38203 | 25169 ft | 494 kts | 226° |
| 2026-05-04 14:07 | 2.74226 | 104.35703 | 24487 ft | 491 kts | 226° |
| 2026-05-04 14:08 | 2.71897 | 104.33214 | 23804 ft | 488 kts | 226° |
| 2026-05-04 14:08 | 2.69582 | 104.30741 | 23143 ft | 483 kts | 226° |
| 2026-05-04 14:08 | 2.67351 | 104.28356 | 22970 ft | 467 kts | 226° |
| 2026-05-04 14:08 | 2.65170 | 104.26025 | 22835 ft | 450 kts | 226° |
| 2026-05-04 14:09 | 2.61037 | 104.21609 | 22515 ft | 421 kts | 225° |
| 2026-05-04 14:09 | 2.59062 | 104.19499 | 22324 ft | 409 kts | 225° |
| 2026-05-04 14:10 | 2.55291 | 104.15472 | 21981 ft | 385 kts | 225° |
| 2026-05-04 14:10 | 2.53479 | 104.13537 | 21683 ft | 377 kts | 225° |
| 2026-05-04 14:10 | 2.51594 | 104.11752 | 21291 ft | 371 kts | 214° |
| 2026-05-04 14:10 | 2.49303 | 104.10670 | 20850 ft | 362 kts | 190° |
| 2026-05-04 14:11 | 2.46827 | 104.10440 | 20475 ft | 354 kts | 178° |
| 2026-05-04 14:11 | 2.41954 | 104.10468 | 19885 ft | 348 kts | 177° |
| 2026-05-04 14:11 | 2.39544 | 104.10482 | 19598 ft | 347 kts | 177° |
| 2026-05-04 14:12 | 2.37165 | 104.10490 | 19314 ft | 345 kts | 177° |
| 2026-05-04 14:12 | 2.34768 | 104.10494 | 19030 ft | 343 kts | 177° |
| 2026-05-04 14:12 | 2.29997 | 104.10498 | 18459 ft | 340 kts | 177° |
| 2026-05-04 14:13 | 2.27632 | 104.10500 | 18163 ft | 339 kts | 177° |
| 2026-05-04 14:13 | 2.25277 | 104.10501 | 17855 ft | 337 kts | 177° |
| 2026-05-04 14:13 | 2.22998 | 104.10501 | 17576 ft | 336 kts | 177° |
| 2026-05-04 14:13 | 2.21435 | 104.10501 | 17391 ft | 335 kts | 177° |
| 2026-05-04 14:14 | 2.19111 | 104.10501 | 17112 ft | 333 kts | 177° |
| 2026-05-04 14:14 | 2.14493 | 104.10501 | 16558 ft | 330 kts | 178° |
| 2026-05-04 14:14 | 2.12198 | 104.10501 | 16308 ft | 327 kts | 178° |
| 2026-05-04 14:15 | 2.07793 | 104.10499 | 15994 ft | 306 kts | 178° |
| 2026-05-04 14:15 | 2.03640 | 104.10499 | 15541 ft | 292 kts | 178° |
| 2026-05-04 14:16 | 1.99649 | 104.10500 | 15071 ft | 284 kts | 178° |
| 2026-05-04 14:16 | 1.97671 | 104.10501 | 14806 ft | 283 kts | 178° |
| 2026-05-04 14:17 | 1.93762 | 104.10521 | 14141 ft | 280 kts | 178° |
| 2026-05-04 14:17 | 1.91818 | 104.10531 | 13892 ft | 279 kts | 179° |
| 2026-05-04 14:17 | 1.87949 | 104.10549 | 13407 ft | 277 kts | 179° |
| 2026-05-04 14:18 | 1.86024 | 104.10558 | 13177 ft | 276 kts | 179° |
| 2026-05-04 14:18 | 1.82201 | 104.10575 | 12714 ft | 274 kts | 179° |
| 2026-05-04 14:19 | 1.78400 | 104.10592 | 12266 ft | 272 kts | 179° |
| 2026-05-04 14:19 | 1.76511 | 104.10601 | 12032 ft | 271 kts | 179° |
| 2026-05-04 14:19 | 1.74624 | 104.10609 | 11805 ft | 270 kts | 179° |
| 2026-05-04 14:19 | 1.72744 | 104.10618 | 11579 ft | 269 kts | 179° |
| 2026-05-04 14:20 | 1.70874 | 104.10626 | 11355 ft | 268 kts | 179° |
| 2026-05-04 14:20 | 1.69011 | 104.10634 | 11139 ft | 267 kts | 179° |
| 2026-05-04 14:20 | 1.67153 | 104.10642 | 10912 ft | 267 kts | 179° |
| 2026-05-04 14:21 | 1.63456 | 104.10659 | 10460 ft | 265 kts | 179° |
| 2026-05-04 14:21 | 1.61634 | 104.10701 | 10203 ft | 264 kts | 175° |
| 2026-05-04 14:21 | 1.59816 | 104.10915 | 10004 ft | 263 kts | 172° |
| 2026-05-04 14:21 | 1.58010 | 104.11181 | 9779 ft | 262 kts | 171° |
| 2026-05-04 14:22 | 1.56210 | 104.11450 | 9542 ft | 261 kts | 171° |
| 2026-05-04 14:22 | 1.54415 | 104.11716 | 9333 ft | 260 kts | 171° |
| 2026-05-04 14:22 | 1.53228 | 104.11892 | 9173 ft | 260 kts | 171° |
| 2026-05-04 14:22 | 1.51443 | 104.12155 | 8970 ft | 259 kts | 171° |
| 2026-05-04 14:23 | 1.47886 | 104.12678 | 8528 ft | 258 kts | 172° |
| 2026-05-04 14:23 | 1.46108 | 104.12856 | 8310 ft | 256 kts | 182° |
| 2026-05-04 14:23 | 1.44381 | 104.12476 | 8104 ft | 254 kts | 201° |
| 2026-05-04 14:24 | 1.42751 | 104.11804 | 7888 ft | 253 kts | 204° |
| 2026-05-04 14:24 | 1.41136 | 104.11103 | 7667 ft | 253 kts | 204° |
| 2026-05-04 14:24 | 1.39522 | 104.10406 | 7461 ft | 252 kts | 204° |
| 2026-05-04 14:24 | 1.37914 | 104.09718 | 7259 ft | 251 kts | 203° |
| 2026-05-04 14:25 | 1.36307 | 104.09033 | 7051 ft | 250 kts | 203° |
| 2026-05-04 14:25 | 1.33114 | 104.07677 | 6592 ft | 250 kts | 203° |
| 2026-05-04 14:25 | 1.31520 | 104.07002 | 6280 ft | 248 kts | 203° |
| 2026-05-04 14:26 | 1.29932 | 104.06329 | 5950 ft | 246 kts | 203° |
| 2026-05-04 14:26 | 1.28361 | 104.05664 | 5641 ft | 245 kts | 203° |
| 2026-05-04 14:26 | 1.26798 | 104.05002 | 5303 ft | 243 kts | 204° |
| 2026-05-04 14:26 | 1.25260 | 104.04351 | 4988 ft | 242 kts | 204° |
| 2026-05-04 14:27 | 1.23711 | 104.03694 | 4660 ft | 241 kts | 204° |
| 2026-05-04 14:27 | 1.22174 | 104.03044 | 4382 ft | 237 kts | 204° |
| 2026-05-04 14:27 | 1.20683 | 104.02412 | 4227 ft | 228 kts | 204° |
| 2026-05-04 14:27 | 1.19256 | 104.01808 | 4076 ft | 218 kts | 204° |
| 2026-05-04 14:28 | 1.17886 | 104.01228 | 3938 ft | 209 kts | 204° |
| 2026-05-04 14:28 | 1.16558 | 104.00666 | 3672 ft | 206 kts | 204° |
| 2026-05-04 14:28 | 1.15321 | 103.99972 | 3322 ft | 205 kts | 224° |
| 2026-05-04 14:28 | 1.14649 | 103.98758 | 3061 ft | 202 kts | 260° |
| 2026-05-04 14:29 | 1.15195 | 103.96054 | 2606 ft | 200 kts | 290° |
| 2026-05-04 14:29 | 1.16158 | 103.93450 | 2490 ft | 201 kts | 290° |
| 2026-05-04 14:30 | 1.16644 | 103.92139 | 2486 ft | 201 kts | 290° |
| 2026-05-04 14:30 | 1.17129 | 103.90832 | 2489 ft | 200 kts | 290° |
| 2026-05-04 14:30 | 1.18468 | 103.88437 | 2492 ft | 202 kts | 325° |
| 2026-05-04 14:31 | 1.19788 | 103.88044 | 2492 ft | 201 kts | 1° |
| 2026-05-04 14:31 | 1.22047 | 103.89500 | 2094 ft | 201 kts | 56° |
| 2026-05-04 14:32 | 1.23479 | 103.91891 | 1995 ft | 202 kts | 60° |
| 2026-05-04 14:32 | 1.24273 | 103.93039 | 1996 ft | 199 kts | 45° |
| 2026-05-04 14:32 | 1.25326 | 103.93818 | 1954 ft | 181 kts | 22° |
| 2026-05-04 14:32 | 1.26496 | 103.94198 | 1755 ft | 174 kts | 17° |
| 2026-05-04 14:33 | 1.27599 | 103.94613 | 1521 ft | 164 kts | 24° |
| 2026-05-04 14:33 | 1.28600 | 103.95086 | 1301 ft | 153 kts | 23° |
| 2026-05-04 14:33 | 1.29552 | 103.95479 | 1096 ft | 143 kts | 22° |
| 2026-05-04 14:33 | 1.30455 | 103.95846 | 933 ft | 138 kts | 24° |
| 2026-05-04 14:34 | 1.31348 | 103.96217 | 773 ft | 139 kts | 22° |
| 2026-05-04 14:34 | 1.32226 | 103.96623 | 630 ft | 140 kts | 25° |
| 2026-05-04 14:34 | 1.33124 | 103.96999 | 449 ft | 139 kts | 20° |
| 2026-05-04 14:34 | 1.33993 | 103.97371 | 261 ft | 136 kts | 24° |
| 2026-05-04 14:35 | 1.34857 | 103.97731 | 100 ft | 133 kts | 21° |
| 2026-05-04 14:35 | 1.35688 | 103.98075 | 37 ft | 118 kts | 24° |
| 2026-05-04 14:35 | 1.36249 | 103.98315 | 34 ft | 58 kts | 23° |
| 2026-05-04 14:35 | 1.36518 | 103.98428 | 36 ft | 33 kts | 23° |
| 2026-05-04 14:36 | 1.36680 | 103.98534 | 36 ft | 23 kts | 44° |
| 2026-05-04 14:36 | 1.36781 | 103.98664 | 34 ft | 25 kts | 53° |
| 2026-05-04 14:36 | 1.36840 | 103.98797 | 32 ft | 20 kts | 102° |
| 2026-05-04 14:36 | 1.36789 | 103.98931 | 31 ft | 21 kts | 116° |
| 2026-05-04 14:37 | 1.36723 | 103.99069 | 31 ft | 23 kts | 115° |
| 2026-05-04 14:37 | 1.36675 | 103.99185 | 31 ft | 13 kts | 112° |
| 2026-05-04 14:37 | 1.36641 | 103.99268 | 31 ft | 14 kts | 112° |
| 2026-05-04 14:37 | 1.36599 | 103.99364 | 31 ft | 17 kts | 114° |
| 2026-05-04 14:38 | 1.36551 | 103.99474 | 31 ft | 16 kts | 114° |
| 2026-05-04 14:38 | 1.36504 | 103.99580 | 31 ft | 15 kts | 116° |
| 2026-05-04 14:38 | 1.36428 | 103.99604 | 31 ft | 11 kts | 204° |
| 2026-05-04 14:38 | 1.36352 | 103.99539 | 31 ft | 18 kts | 233° |
| 2026-05-04 14:39 | 1.36266 | 103.99436 | 31 ft | 20 kts | 218° |
| 2026-05-04 14:39 | 1.36136 | 103.99376 | 31 ft | 22 kts | 204° |
| 2026-05-04 14:39 | 1.35998 | 103.99314 | 31 ft | 19 kts | 203° |
| 2026-05-04 14:40 | 1.35753 | 103.99213 | 31 ft | 13 kts | 204° |
| 2026-05-04 14:40 | 1.35720 | 103.99154 | 31 ft | 8 kts | 287° |
| 2026-05-04 14:40 | 1.35724 | 103.99148 | 31 ft | 9 kts | 294° |
| 2026-05-04 14:53 | 1.35727 | 103.99141 | 31 ft | 9 kts | 295° |
| 2026-05-04 14:53 | 1.35742 | 103.99108 | 31 ft | 0 kts | 293° |